sensor_id;sensor_type;location;lat;lon;timestamp;pressure;altitude;pressure_sealevel;temperature;humidity
23427;BME280;41148;45.420;10.952;2022-08-04T00:00:42;100740.56;;;26.82;50.64
23427;BME280;41148;45.420;10.952;2022-08-04T00:03:12;100735.00;;;26.84;50.79
23427;BME280;41148;45.420;10.952;2022-08-04T00:10:53;100735.84;;;26.84;50.54
23427;BME280;41148;45.420;10.952;2022-08-04T00:13:21;100735.97;;;26.82;50.46
23427;BME280;41148;45.420;10.952;2022-08-04T00:15:50;100730.38;;;26.84;50.53
23427;BME280;41148;45.420;10.952;2022-08-04T00:18:19;100731.41;;;26.83;50.41
23427;BME280;41148;45.420;10.952;2022-08-04T00:20:49;100729.94;;;26.79;50.49
23427;BME280;41148;45.420;10.952;2022-08-04T00:23:19;100734.84;;;26.75;50.62
23427;BME280;41148;45.420;10.952;2022-08-04T00:25:48;100736.28;;;26.70;50.80
23427;BME280;41148;45.420;10.952;2022-08-04T00:28:15;100725.97;;;26.64;51.14
23427;BME280;41148;45.420;10.952;2022-08-04T00:30:44;100733.16;;;26.55;51.44
23427;BME280;41148;45.420;10.952;2022-08-04T00:33:11;100741.47;;;26.53;51.27
23427;BME280;41148;45.420;10.952;2022-08-04T00:35:39;100737.88;;;26.53;51.22
23427;BME280;41148;45.420;10.952;2022-08-04T00:38:07;100733.00;;;26.47;51.48
23427;BME280;41148;45.420;10.952;2022-08-04T00:43:18;100737.47;;;26.38;52.02
23427;BME280;41148;45.420;10.952;2022-08-04T00:45:59;100739.00;;;26.31;51.97
23427;BME280;41148;45.420;10.952;2022-08-04T00:54:11;100735.56;;;26.19;52.08
23427;BME280;41148;45.420;10.952;2022-08-04T01:04:31;100730.47;;;25.95;52.94
23427;BME280;41148;45.420;10.952;2022-08-04T01:09:43;100726.75;;;25.87;53.19
23427;BME280;41148;45.420;10.952;2022-08-04T01:12:21;100737.91;;;25.74;53.39
23427;BME280;41148;45.420;10.952;2022-08-04T01:20:06;100731.91;;;25.90;53.18
23427;BME280;41148;45.420;10.952;2022-08-04T01:30:44;100720.53;;;25.85;53.52
23427;BME280;41148;45.420;10.952;2022-08-04T01:33:12;100730.75;;;25.83;53.13
23427;BME280;41148;45.420;10.952;2022-08-04T01:35:45;100723.72;;;25.80;53.28
23427;BME280;41148;45.420;10.952;2022-08-04T01:40:50;100720.66;;;25.74;53.59
23427;BME280;41148;45.420;10.952;2022-08-04T01:43:19;100720.19;;;25.68;53.95
23427;BME280;41148;45.420;10.952;2022-08-04T01:45:50;100723.94;;;25.67;53.78
23427;BME280;41148;45.420;10.952;2022-08-04T01:48:17;100717.56;;;25.57;54.22
23427;BME280;41148;45.420;10.952;2022-08-04T01:50:53;100721.31;;;25.66;54.21
23427;BME280;41148;45.420;10.952;2022-08-04T01:53:23;100711.53;;;25.54;54.28
23427;BME280;41148;45.420;10.952;2022-08-04T01:55:56;100710.34;;;25.47;54.75
23427;BME280;41148;45.420;10.952;2022-08-04T01:58:24;100715.81;;;25.47;54.82
23427;BME280;41148;45.420;10.952;2022-08-04T02:00:56;100715.41;;;25.51;54.56
23427;BME280;41148;45.420;10.952;2022-08-04T02:03:23;100718.28;;;25.50;54.78
23427;BME280;41148;45.420;10.952;2022-08-04T02:06:26;100720.81;;;25.42;55.00
23427;BME280;41148;45.420;10.952;2022-08-04T02:09:02;100721.41;;;25.45;54.92
23427;BME280;41148;45.420;10.952;2022-08-04T02:11:31;100725.31;;;25.52;54.62
23427;BME280;41148;45.420;10.952;2022-08-04T02:16:48;100725.63;;;25.59;54.23
23427;BME280;41148;45.420;10.952;2022-08-04T02:21:50;100722.63;;;25.62;54.34
23427;BME280;41148;45.420;10.952;2022-08-04T02:24:21;100723.03;;;25.67;54.17
23427;BME280;41148;45.420;10.952;2022-08-04T02:26:52;100724.41;;;25.73;54.14
23427;BME280;41148;45.420;10.952;2022-08-04T02:29:22;100717.47;;;25.68;53.90
23427;BME280;41148;45.420;10.952;2022-08-04T02:32:03;100716.47;;;25.69;54.06
23427;BME280;41148;45.420;10.952;2022-08-04T02:34:47;100724.78;;;25.68;54.29
23427;BME280;41148;45.420;10.952;2022-08-04T02:37:19;100723.19;;;25.65;54.69
23427;BME280;41148;45.420;10.952;2022-08-04T02:39:46;100717.47;;;25.68;54.67
23427;BME280;41148;45.420;10.952;2022-08-04T02:42:16;100717.38;;;25.70;54.35
23427;BME280;41148;45.420;10.952;2022-08-04T02:44:49;100715.50;;;25.71;54.52
23427;BME280;41148;45.420;10.952;2022-08-04T02:47:19;100715.00;;;25.65;54.77
23427;BME280;41148;45.420;10.952;2022-08-04T02:49:46;100717.31;;;25.60;55.03
23427;BME280;41148;45.420;10.952;2022-08-04T02:52:20;100717.44;;;25.59;54.88
23427;BME280;41148;45.420;10.952;2022-08-04T02:54:48;100707.97;;;25.63;55.08
23427;BME280;41148;45.420;10.952;2022-08-04T02:57:17;100717.00;;;25.63;54.74
23427;BME280;41148;45.420;10.952;2022-08-04T03:02:12;100708.44;;;25.68;54.93
23427;BME280;41148;45.420;10.952;2022-08-04T03:04:53;100710.03;;;25.71;52.01
23427;BME280;41148;45.420;10.952;2022-08-04T03:10:14;100705.03;;;25.85;50.58
23427;BME280;41148;45.420;10.952;2022-08-04T03:34:21;100704.38;;;25.62;51.10
23427;BME280;41148;45.420;10.952;2022-08-04T03:39:50;100701.88;;;25.80;51.93
23427;BME280;41148;45.420;10.952;2022-08-04T03:42:43;100703.75;;;25.80;51.89
23427;BME280;41148;45.420;10.952;2022-08-04T03:46:03;100707.25;;;25.61;52.71
23427;BME280;41148;45.420;10.952;2022-08-04T04:04:54;100699.16;;;25.80;51.96
23427;BME280;41148;45.420;10.952;2022-08-04T04:18:14;100709.59;;;25.35;55.21
23427;BME280;41148;45.420;10.952;2022-08-04T04:20:48;100708.00;;;25.32;55.31
23427;BME280;41148;45.420;10.952;2022-08-04T04:33:46;100722.13;;;25.17;55.83
23427;BME280;41148;45.420;10.952;2022-08-04T04:41:40;100720.75;;;25.22;55.29
23427;BME280;41148;45.420;10.952;2022-08-04T04:46:49;100726.00;;;25.14;55.66
23427;BME280;41148;45.420;10.952;2022-08-04T04:49:28;100717.28;;;25.20;55.65
23427;BME280;41148;45.420;10.952;2022-08-04T04:51:59;100720.47;;;25.25;55.69
23427;BME280;41148;45.420;10.952;2022-08-04T04:57:10;100722.84;;;25.39;55.56
23427;BME280;41148;45.420;10.952;2022-08-04T04:59:42;100725.13;;;25.44;55.31
23427;BME280;41148;45.420;10.952;2022-08-04T05:07:49;100726.16;;;25.53;55.18
23427;BME280;41148;45.420;10.952;2022-08-04T05:10:45;100725.72;;;25.48;55.46
23427;BME280;41148;45.420;10.952;2022-08-04T05:16:45;100733.97;;;25.67;54.65
23427;BME280;41148;45.420;10.952;2022-08-04T05:21:44;100731.75;;;25.82;54.37
23427;BME280;41148;45.420;10.952;2022-08-04T05:24:13;100724.13;;;25.85;53.90
23427;BME280;41148;45.420;10.952;2022-08-04T05:26:43;100728.16;;;25.81;53.68
23427;BME280;41148;45.420;10.952;2022-08-04T05:29:33;100731.78;;;25.91;53.60
23427;BME280;41148;45.420;10.952;2022-08-04T05:32:02;100731.63;;;26.03;53.46
23427;BME280;41148;45.420;10.952;2022-08-04T05:34:32;100728.78;;;26.14;53.12
23427;BME280;41148;45.420;10.952;2022-08-04T05:37:02;100735.72;;;26.28;52.68
23427;BME280;41148;45.420;10.952;2022-08-04T05:39:44;100739.19;;;26.39;52.24
23427;BME280;41148;45.420;10.952;2022-08-04T05:42:13;100740.19;;;26.38;52.17
23427;BME280;41148;45.420;10.952;2022-08-04T05:44:41;100740.56;;;26.34;51.78
23427;BME280;41148;45.420;10.952;2022-08-04T05:47:14;100740.91;;;26.50;51.32
23427;BME280;41148;45.420;10.952;2022-08-04T05:49:42;100744.63;;;26.68;51.04
23427;BME280;41148;45.420;10.952;2022-08-04T05:52:10;100740.25;;;27.24;49.64
23427;BME280;41148;45.420;10.952;2022-08-04T05:54:38;100732.44;;;27.66;48.49
23427;BME280;41148;45.420;10.952;2022-08-04T05:57:06;100739.69;;;27.48;49.44
23427;BME280;41148;45.420;10.952;2022-08-04T05:59:35;100733.09;;;27.41;49.45
23427;BME280;41148;45.420;10.952;2022-08-04T06:02:03;100735.13;;;27.38;49.41
23427;BME280;41148;45.420;10.952;2022-08-04T06:04:36;100731.66;;;27.46;49.09
23427;BME280;41148;45.420;10.952;2022-08-04T06:07:04;100732.91;;;27.24;48.56
23427;BME280;41148;45.420;10.952;2022-08-04T06:09:32;100736.38;;;27.17;48.94
23427;BME280;41148;45.420;10.952;2022-08-04T06:12:00;100722.41;;;27.00;48.84
23427;BME280;41148;45.420;10.952;2022-08-04T06:14:38;100728.03;;;27.08;49.23
23427;BME280;41148;45.420;10.952;2022-08-04T06:17:06;100728.47;;;27.14;49.17
23427;BME280;41148;45.420;10.952;2022-08-04T06:19:55;100727.97;;;27.28;48.75
23427;BME280;41148;45.420;10.952;2022-08-04T06:22:44;100735.09;;;27.48;48.62
23427;BME280;41148;45.420;10.952;2022-08-04T06:25:13;100730.25;;;27.42;47.60
23427;BME280;41148;45.420;10.952;2022-08-04T06:27:41;100729.22;;;27.43;47.26
23427;BME280;41148;45.420;10.952;2022-08-04T06:30:09;100729.78;;;27.47;47.18
23427;BME280;41148;45.420;10.952;2022-08-04T06:32:40;100726.03;;;27.48;46.91
23427;BME280;41148;45.420;10.952;2022-08-04T06:35:16;100733.91;;;27.60;46.94
23427;BME280;41148;45.420;10.952;2022-08-04T06:37:46;100735.50;;;27.53;46.02
23427;BME280;41148;45.420;10.952;2022-08-04T06:40:15;100734.44;;;27.64;45.95
23427;BME280;41148;45.420;10.952;2022-08-04T06:43:05;100741.31;;;27.78;45.83
23427;BME280;41148;45.420;10.952;2022-08-04T06:45:34;100741.25;;;27.87;45.71
23427;BME280;41148;45.420;10.952;2022-08-04T06:48:02;100743.78;;;27.99;45.94
23427;BME280;41148;45.420;10.952;2022-08-04T06:50:31;100743.72;;;28.08;45.20
23427;BME280;41148;45.420;10.952;2022-08-04T06:53:20;100741.84;;;28.27;44.44
23427;BME280;41148;45.420;10.952;2022-08-04T06:55:48;100744.25;;;28.39;44.29
23427;BME280;41148;45.420;10.952;2022-08-04T06:58:15;100757.16;;;28.29;44.28
23427;BME280;41148;45.420;10.952;2022-08-04T07:00:43;100749.56;;;28.41;43.95
23427;BME280;41148;45.420;10.952;2022-08-04T07:03:11;100746.59;;;28.52;43.95
23427;BME280;41148;45.420;10.952;2022-08-04T07:05:39;100753.94;;;28.69;43.32
23427;BME280;41148;45.420;10.952;2022-08-04T07:08:08;100740.59;;;28.74;43.58
23427;BME280;41148;45.420;10.952;2022-08-04T07:10:36;100743.56;;;28.81;43.84
23427;BME280;41148;45.420;10.952;2022-08-04T07:13:04;100742.03;;;28.78;44.53
23427;BME280;41148;45.420;10.952;2022-08-04T07:15:33;100740.13;;;28.79;45.19
23427;BME280;41148;45.420;10.952;2022-08-04T07:18:01;100741.84;;;28.80;44.99
23427;BME280;41148;45.420;10.952;2022-08-04T07:20:31;100736.59;;;28.87;44.83
23427;BME280;41148;45.420;10.952;2022-08-04T07:23:05;100740.31;;;28.95;44.72
23427;BME280;41148;45.420;10.952;2022-08-04T07:25:34;100742.81;;;28.89;45.06
23427;BME280;41148;45.420;10.952;2022-08-04T07:28:22;100735.75;;;28.86;45.22
23427;BME280;41148;45.420;10.952;2022-08-04T07:30:50;100732.78;;;28.97;44.94
23427;BME280;41148;45.420;10.952;2022-08-04T07:33:18;100737.06;;;29.00;44.63
23427;BME280;41148;45.420;10.952;2022-08-04T07:35:46;100741.81;;;29.16;44.13
23427;BME280;41148;45.420;10.952;2022-08-04T07:38:34;100736.00;;;29.19;44.07
23427;BME280;41148;45.420;10.952;2022-08-04T07:41:16;100738.97;;;29.25;44.06
23427;BME280;41148;45.420;10.952;2022-08-04T07:44:01;100741.25;;;29.38;43.52
23427;BME280;41148;45.420;10.952;2022-08-04T07:46:29;100747.09;;;29.43;43.34
23427;BME280;41148;45.420;10.952;2022-08-04T07:49:00;100745.94;;;29.46;43.19
23427;BME280;41148;45.420;10.952;2022-08-04T07:51:27;100735.16;;;29.52;42.76
23427;BME280;41148;45.420;10.952;2022-08-04T07:53:56;100745.66;;;29.57;42.72
23427;BME280;41148;45.420;10.952;2022-08-04T07:56:27;100741.13;;;29.74;41.43
23427;BME280;41148;45.420;10.952;2022-08-04T07:58:54;100740.72;;;29.69;41.54
23427;BME280;41148;45.420;10.952;2022-08-04T08:01:22;100743.13;;;29.63;40.97
23427;BME280;41148;45.420;10.952;2022-08-04T08:03:50;100737.50;;;29.73;40.65
23427;BME280;41148;45.420;10.952;2022-08-04T08:06:18;100722.63;;;29.50;40.08
23427;BME280;41148;45.420;10.952;2022-08-04T08:09:06;100729.53;;;29.54;40.91
23427;BME280;41148;45.420;10.952;2022-08-04T08:11:40;100728.56;;;29.71;40.52
23427;BME280;41148;45.420;10.952;2022-08-04T08:14:28;100730.50;;;29.87;40.35
23427;BME280;41148;45.420;10.952;2022-08-04T08:17:01;100737.94;;;30.03;39.89
23427;BME280;41148;45.420;10.952;2022-08-04T08:22:06;100724.28;;;30.27;39.71
23427;BME280;41148;45.420;10.952;2022-08-04T08:24:34;100715.50;;;30.40;39.09
23427;BME280;41148;45.420;10.952;2022-08-04T08:27:02;100720.53;;;30.53;38.54
23427;BME280;41148;45.420;10.952;2022-08-04T08:29:33;100722.75;;;30.57;38.49
23427;BME280;41148;45.420;10.952;2022-08-04T08:32:01;100725.34;;;30.67;38.25
23427;BME280;41148;45.420;10.952;2022-08-04T08:34:34;100727.59;;;30.80;38.30
23427;BME280;41148;45.420;10.952;2022-08-04T08:39:35;100720.00;;;30.98;36.68
23427;BME280;41148;45.420;10.952;2022-08-04T08:55:56;100718.31;;;31.60;36.07
23427;BME280;41148;45.420;10.952;2022-08-04T08:58:37;100714.13;;;31.65;35.62
23427;BME280;41148;45.420;10.952;2022-08-04T09:14:34;100707.59;;;32.36;32.95
23427;BME280;41148;45.420;10.952;2022-08-04T09:17:15;100715.97;;;32.42;32.57
23427;BME280;41148;45.420;10.952;2022-08-04T09:19:48;100711.84;;;32.61;32.23
23427;BME280;41148;45.420;10.952;2022-08-04T09:22:21;100708.47;;;32.74;31.87
23427;BME280;41148;45.420;10.952;2022-08-04T09:25:36;100709.19;;;32.91;31.76
23427;BME280;41148;45.420;10.952;2022-08-04T09:41:07;100708.16;;;33.07;29.14
23427;BME280;41148;45.420;10.952;2022-08-04T09:46:51;100710.41;;;33.41;28.72
23427;BME280;41148;45.420;10.952;2022-08-04T09:51:57;100702.84;;;33.35;28.53
23427;BME280;41148;45.420;10.952;2022-08-04T09:57:03;100694.41;;;33.36;29.53
23427;BME280;41148;45.420;10.952;2022-08-04T09:59:35;100691.84;;;33.49;29.81
23427;BME280;41148;45.420;10.952;2022-08-04T10:02:08;100697.22;;;33.28;29.06
23427;BME280;41148;45.420;10.952;2022-08-04T10:04:36;100692.78;;;33.12;29.84
23427;BME280;41148;45.420;10.952;2022-08-04T10:07:14;100685.34;;;33.13;30.05
23427;BME280;41148;45.420;10.952;2022-08-04T10:12:19;100674.09;;;33.14;30.81
23427;BME280;41148;45.420;10.952;2022-08-04T10:28:50;100661.84;;;33.02;30.63
23427;BME280;41148;45.420;10.952;2022-08-04T10:31:21;100659.25;;;33.00;31.01
23427;BME280;41148;45.420;10.952;2022-08-04T10:33:52;100664.19;;;33.05;31.47
23427;BME280;41148;45.420;10.952;2022-08-04T10:36:21;100662.28;;;32.91;31.71
23427;BME280;41148;45.420;10.952;2022-08-04T10:38:55;100666.28;;;32.88;32.12
23427;BME280;41148;45.420;10.952;2022-08-04T10:44:26;100655.28;;;32.80;31.82
23427;BME280;41148;45.420;10.952;2022-08-04T10:47:18;100650.56;;;32.89;31.33
23427;BME280;41148;45.420;10.952;2022-08-04T10:49:53;100658.97;;;32.95;31.00
23427;BME280;41148;45.420;10.952;2022-08-04T10:52:28;100656.47;;;33.00;30.83
23427;BME280;41148;45.420;10.952;2022-08-04T10:57:28;100654.69;;;33.08;29.72
23427;BME280;41148;45.420;10.952;2022-08-04T11:00:08;100651.53;;;32.96;29.81
23427;BME280;41148;45.420;10.952;2022-08-04T11:02:39;100659.91;;;32.88;29.32
23427;BME280;41148;45.420;10.952;2022-08-04T11:07:57;100651.28;;;33.20;29.42
23427;BME280;41148;45.420;10.952;2022-08-04T11:10:27;100655.81;;;33.28;28.79
23427;BME280;41148;45.420;10.952;2022-08-04T11:12:58;100647.66;;;33.05;29.17
23427;BME280;41148;45.420;10.952;2022-08-04T11:15:29;100650.22;;;33.07;29.52
23427;BME280;41148;45.420;10.952;2022-08-04T11:18:12;100642.22;;;33.12;29.75
23427;BME280;41148;45.420;10.952;2022-08-04T11:21:06;100649.16;;;32.93;29.89
23427;BME280;41148;45.420;10.952;2022-08-04T11:23:33;100636.59;;;33.05;30.16
23427;BME280;41148;45.420;10.952;2022-08-04T11:26:10;100638.78;;;33.10;30.22
23427;BME280;41148;45.420;10.952;2022-08-04T11:31:47;100637.16;;;33.15;30.56
23427;BME280;41148;45.420;10.952;2022-08-04T11:44:48;100627.53;;;33.26;30.31
23427;BME280;41148;45.420;10.952;2022-08-04T11:49:59;100636.50;;;33.28;30.55
23427;BME280;41148;45.420;10.952;2022-08-04T11:52:26;100631.06;;;33.20;29.67
23427;BME280;41148;45.420;10.952;2022-08-04T11:54:54;100629.19;;;33.20;29.27
23427;BME280;41148;45.420;10.952;2022-08-04T11:57:23;100623.28;;;33.09;29.43
23427;BME280;41148;45.420;10.952;2022-08-04T12:00:09;100628.69;;;33.17;30.10
23427;BME280;41148;45.420;10.952;2022-08-04T12:05:19;100613.78;;;33.41;30.06
23427;BME280;41148;45.420;10.952;2022-08-04T12:13:19;100614.03;;;33.31;29.14
23427;BME280;41148;45.420;10.952;2022-08-04T12:16:00;100611.94;;;33.33;29.77
23427;BME280;41148;45.420;10.952;2022-08-04T12:18:32;100612.13;;;33.31;29.94
23427;BME280;41148;45.420;10.952;2022-08-04T12:21:02;100611.38;;;33.38;29.63
23427;BME280;41148;45.420;10.952;2022-08-04T12:23:35;100606.13;;;33.43;30.11
23427;BME280;41148;45.420;10.952;2022-08-04T12:26:04;100608.91;;;33.43;29.42
23427;BME280;41148;45.420;10.952;2022-08-04T12:31:21;100604.44;;;33.42;30.08
23427;BME280;41148;45.420;10.952;2022-08-04T12:33:59;100600.50;;;33.51;30.20
23427;BME280;41148;45.420;10.952;2022-08-04T12:36:50;100599.97;;;33.41;30.16
23427;BME280;41148;45.420;10.952;2022-08-04T12:39:22;100598.78;;;33.35;30.05
23427;BME280;41148;45.420;10.952;2022-08-04T12:41:57;100598.63;;;33.37;30.37
23427;BME280;41148;45.420;10.952;2022-08-04T12:44:33;100601.53;;;33.35;30.49
23427;BME280;41148;45.420;10.952;2022-08-04T12:47:08;100594.25;;;33.42;30.25
23427;BME280;41148;45.420;10.952;2022-08-04T12:50:00;100592.97;;;33.59;29.80
23427;BME280;41148;45.420;10.952;2022-08-04T12:52:31;100595.63;;;33.53;30.15
23427;BME280;41148;45.420;10.952;2022-08-04T12:55:19;100599.34;;;33.60;29.61
23427;BME280;41148;45.420;10.952;2022-08-04T12:57:48;100594.72;;;33.31;29.91
23427;BME280;41148;45.420;10.952;2022-08-04T13:00:24;100588.34;;;33.16;30.12
23427;BME280;41148;45.420;10.952;2022-08-04T13:02:59;100585.69;;;33.22;30.34
23427;BME280;41148;45.420;10.952;2022-08-04T13:05:30;100590.03;;;33.31;30.04
23427;BME280;41148;45.420;10.952;2022-08-04T13:07:58;100581.00;;;33.38;30.46
23427;BME280;41148;45.420;10.952;2022-08-04T13:10:27;100581.09;;;33.44;29.81
23427;BME280;41148;45.420;10.952;2022-08-04T13:12:59;100576.81;;;33.42;29.97
23427;BME280;41148;45.420;10.952;2022-08-04T13:15:26;100581.00;;;33.38;30.45
23427;BME280;41148;45.420;10.952;2022-08-04T13:17:55;100576.41;;;33.45;30.24
23427;BME280;41148;45.420;10.952;2022-08-04T13:20:28;100575.84;;;33.49;30.02
23427;BME280;41148;45.420;10.952;2022-08-04T13:23:06;100571.66;;;33.39;30.03
23427;BME280;41148;45.420;10.952;2022-08-04T13:25:42;100569.94;;;33.38;31.12
23427;BME280;41148;45.420;10.952;2022-08-04T13:28:30;100574.78;;;33.50;31.05
23427;BME280;41148;45.420;10.952;2022-08-04T13:31:01;100564.19;;;33.54;30.76
23427;BME280;41148;45.420;10.952;2022-08-04T13:33:30;100562.09;;;33.56;30.54
23427;BME280;41148;45.420;10.952;2022-08-04T13:35:58;100558.22;;;33.50;30.26
23427;BME280;41148;45.420;10.952;2022-08-04T13:38:26;100549.25;;;33.48;30.35
23427;BME280;41148;45.420;10.952;2022-08-04T13:40:59;100547.19;;;33.50;30.41
23427;BME280;41148;45.420;10.952;2022-08-04T13:43:31;100546.47;;;33.63;30.03
23427;BME280;41148;45.420;10.952;2022-08-04T13:46:21;100543.28;;;33.66;29.78
23427;BME280;41148;45.420;10.952;2022-08-04T13:48:54;100537.56;;;33.68;30.19
23427;BME280;41148;45.420;10.952;2022-08-04T13:51:46;100538.16;;;33.63;30.00
23427;BME280;41148;45.420;10.952;2022-08-04T13:54:25;100528.75;;;33.57;30.10
23427;BME280;41148;45.420;10.952;2022-08-04T13:56:57;100531.59;;;33.64;29.74
23427;BME280;41148;45.420;10.952;2022-08-04T13:59:26;100525.63;;;33.61;29.98
23427;BME280;41148;45.420;10.952;2022-08-04T14:02:00;100529.59;;;33.58;29.67
23427;BME280;41148;45.420;10.952;2022-08-04T14:04:31;100531.00;;;33.69;29.18
23427;BME280;41148;45.420;10.952;2022-08-04T14:09:28;100525.41;;;33.62;28.96
23427;BME280;41148;45.420;10.952;2022-08-04T14:12:07;100524.06;;;33.58;29.63
23427;BME280;41148;45.420;10.952;2022-08-04T14:14:54;100522.56;;;33.55;29.97
23427;BME280;41148;45.420;10.952;2022-08-04T14:17:25;100516.19;;;33.55;29.81
23427;BME280;41148;45.420;10.952;2022-08-04T14:19:57;100518.56;;;33.58;29.89
23427;BME280;41148;45.420;10.952;2022-08-04T14:24:56;100513.63;;;33.53;30.25
23427;BME280;41148;45.420;10.952;2022-08-04T14:27:24;100514.75;;;33.59;30.39
23427;BME280;41148;45.420;10.952;2022-08-04T14:29:54;100515.47;;;33.68;29.46
23427;BME280;41148;45.420;10.952;2022-08-04T14:32:21;100507.97;;;33.62;29.44
23427;BME280;41148;45.420;10.952;2022-08-04T14:34:52;100501.94;;;33.51;28.97
23427;BME280;41148;45.420;10.952;2022-08-04T14:37:19;100509.09;;;33.46;29.49
23427;BME280;41148;45.420;10.952;2022-08-04T14:39:50;100506.94;;;33.41;30.23
23427;BME280;41148;45.420;10.952;2022-08-04T14:42:42;100506.13;;;33.47;30.22
23427;BME280;41148;45.420;10.952;2022-08-04T14:45:09;100500.69;;;33.54;29.78
23427;BME280;41148;45.420;10.952;2022-08-04T14:50:06;100497.31;;;33.58;30.01
23427;BME280;41148;45.420;10.952;2022-08-04T14:52:35;100499.63;;;33.55;29.83
23427;BME280;41148;45.420;10.952;2022-08-04T14:55:16;100499.41;;;33.56;29.45
23427;BME280;41148;45.420;10.952;2022-08-04T14:57:43;100502.47;;;33.62;29.63
23427;BME280;41148;45.420;10.952;2022-08-04T15:00:33;100498.25;;;33.66;29.71
23427;BME280;41148;45.420;10.952;2022-08-04T15:03:02;100497.19;;;33.67;29.95
23427;BME280;41148;45.420;10.952;2022-08-04T15:05:31;100493.19;;;33.69;29.98
23427;BME280;41148;45.420;10.952;2022-08-04T15:08:19;100497.47;;;33.72;29.69
23427;BME280;41148;45.420;10.952;2022-08-04T15:10:47;100489.31;;;33.64;29.71
23427;BME280;41148;45.420;10.952;2022-08-04T15:13:14;100490.28;;;33.56;30.25
23427;BME280;41148;45.420;10.952;2022-08-04T15:15:42;100486.25;;;33.58;30.35
23427;BME280;41148;45.420;10.952;2022-08-04T15:18:29;100487.06;;;33.52;30.63
23427;BME280;41148;45.420;10.952;2022-08-04T15:20:58;100486.66;;;33.55;30.89
23427;BME280;41148;45.420;10.952;2022-08-04T15:23:28;100480.28;;;33.55;30.64
23427;BME280;41148;45.420;10.952;2022-08-04T15:26:05;100479.34;;;33.48;30.32
23427;BME280;41148;45.420;10.952;2022-08-04T15:28:34;100478.06;;;33.44;30.97
23427;BME280;41148;45.420;10.952;2022-08-04T15:31:04;100477.84;;;33.45;30.93
23427;BME280;41148;45.420;10.952;2022-08-04T15:33:53;100476.59;;;33.48;31.15
23427;BME280;41148;45.420;10.952;2022-08-04T15:36:30;100476.22;;;33.51;30.37
23427;BME280;41148;45.420;10.952;2022-08-04T15:41:34;100469.56;;;33.45;30.01
23427;BME280;41148;45.420;10.952;2022-08-04T15:49:17;100466.47;;;33.55;29.10
23427;BME280;41148;45.420;10.952;2022-08-04T15:51:44;100464.78;;;33.54;29.20
23427;BME280;41148;45.420;10.952;2022-08-04T15:56:49;100467.13;;;33.57;28.21
23427;BME280;41148;45.420;10.952;2022-08-04T16:00:12;100463.31;;;33.58;27.86
23427;BME280;41148;45.420;10.952;2022-08-04T16:02:35;100455.63;;;33.53;28.63
23427;BME280;41148;45.420;10.952;2022-08-04T16:07:57;100453.94;;;33.52;28.75
23427;BME280;41148;45.420;10.952;2022-08-04T16:10:35;100450.69;;;33.49;28.26
23427;BME280;41148;45.420;10.952;2022-08-04T16:13:04;100451.75;;;33.48;28.27
23427;BME280;41148;45.420;10.952;2022-08-04T16:18:02;100453.00;;;33.45;28.34
23427;BME280;41148;45.420;10.952;2022-08-04T16:20:32;100445.78;;;33.44;28.00
23427;BME280;41148;45.420;10.952;2022-08-04T16:23:02;100446.19;;;33.41;28.28
23427;BME280;41148;45.420;10.952;2022-08-04T16:25:45;100437.41;;;33.38;27.75
23427;BME280;41148;45.420;10.952;2022-08-04T16:28:36;100448.66;;;33.57;26.22
23427;BME280;41148;45.420;10.952;2022-08-04T16:31:04;100437.53;;;33.72;25.94
23427;BME280;41148;45.420;10.952;2022-08-04T16:33:32;100440.44;;;33.64;26.32
23427;BME280;41148;45.420;10.952;2022-08-04T16:36:11;100438.44;;;33.58;26.17
23427;BME280;41148;45.420;10.952;2022-08-04T16:41:45;100446.63;;;33.45;26.24
23427;BME280;41148;45.420;10.952;2022-08-04T16:44:32;100444.91;;;33.44;26.32
23427;BME280;41148;45.420;10.952;2022-08-04T16:47:19;100441.50;;;33.42;26.52
23427;BME280;41148;45.420;10.952;2022-08-04T16:50:07;100433.81;;;33.37;26.81
23427;BME280;41148;45.420;10.952;2022-08-04T16:52:40;100442.66;;;33.33;27.18
23427;BME280;41148;45.420;10.952;2022-08-04T16:55:07;100440.44;;;33.43;26.82
23427;BME280;41148;45.420;10.952;2022-08-04T16:57:35;100441.09;;;33.45;26.77
23427;BME280;41148;45.420;10.952;2022-08-04T17:00:05;100435.78;;;33.43;27.29
23427;BME280;41148;45.420;10.952;2022-08-04T17:02:33;100439.81;;;33.41;27.05
23427;BME280;41148;45.420;10.952;2022-08-04T17:05:02;100440.84;;;33.40;27.09
23427;BME280;41148;45.420;10.952;2022-08-04T17:07:53;100439.91;;;33.33;27.12
23427;BME280;41148;45.420;10.952;2022-08-04T17:10:42;100436.50;;;33.30;27.24
23427;BME280;41148;45.420;10.952;2022-08-04T17:13:20;100443.03;;;33.29;26.90
23427;BME280;41148;45.420;10.952;2022-08-04T17:16:09;100442.56;;;33.26;26.94
23427;BME280;41148;45.420;10.952;2022-08-04T17:18:48;100452.53;;;33.20;26.95
23427;BME280;41148;45.420;10.952;2022-08-04T17:21:16;100444.81;;;33.16;27.11
23427;BME280;41148;45.420;10.952;2022-08-04T17:23:46;100449.28;;;33.17;26.87
23427;BME280;41148;45.420;10.952;2022-08-04T17:26:36;100450.63;;;33.21;27.08
23427;BME280;41148;45.420;10.952;2022-08-04T17:29:06;100447.91;;;33.27;26.93
23427;BME280;41148;45.420;10.952;2022-08-04T17:31:35;100448.31;;;33.24;26.89
23427;BME280;41148;45.420;10.952;2022-08-04T17:34:13;100440.53;;;33.13;27.34
23427;BME280;41148;45.420;10.952;2022-08-04T17:36:45;100439.19;;;33.09;27.63
23427;BME280;41148;45.420;10.952;2022-08-04T17:39:14;100445.72;;;33.01;27.94